Time;durP1;ratioP1;P1;durP2;ratioP2;P2;SDS_P1;SDS_P2;PMS_P1;PMS_P2;Temp;Humidity;BMP_temperature;BMP_pressure;BME280_temperature;BME280_humidity;BME280_pressure;Samples;Min_cycle;Max_cycle;Signal;HPM_P1;HPM_P2
2023/01/16 00:01:35;;;;;;;;;;;;;;;11.34;nan;99969.22;5011477;28;20041;-32
2023/01/16 00:04:01;;;;;;;;;;;;;;;11.34;nan;99971.88;5010840;28;19925;-33
2023/01/16 00:06:26;;;;;;;;;;;;;;;11.34;nan;99963.84;5012818;28;19926;-33
2023/01/16 00:08:51;;;;;;;;;;;;;;;11.35;nan;99968.94;5009724;28;21499;-33
2023/01/16 00:11:17;;;;;;;;;;;;;;;11.32;nan;99957.94;5011763;28;19918;-33
2023/01/16 00:13:42;;;;;;;;;;;;;;;11.37;nan;99972.16;5011912;28;19928;-32
2023/01/16 00:16:07;;;;;;;;;;;;;;;11.36;nan;99967.06;5010895;28;20386;-32
2023/01/16 00:18:33;;;;;;;;;;;;;;;11.34;nan;99961.16;5012995;28;19917;-32
2023/01/16 00:20:58;;;;;;;;;;;;;;;11.32;nan;99972.16;5011906;28;19918;-32
2023/01/16 00:23:24;;;;;;;;;;;;;;;11.30;nan;99966.25;5012036;28;19924;-32
2023/01/16 00:25:49;;;;;;;;;;;;;;;11.27;nan;99968.66;5010843;28;20241;-33
2023/01/16 00:28:14;;;;;;;;;;;;;;;11.25;nan;99968.94;5009073;28;20298;-32
2023/01/16 00:30:40;;;;;;;;;;;;;;;11.27;nan;99971.34;5009918;28;20059;-32
2023/01/16 00:33:05;;;;;;;;;;;;;;;11.27;nan;99964.09;5010399;28;20442;-33
2023/01/16 00:35:31;;;;;;;;;;;;;;;11.34;nan;99955.81;5009293;28;19917;-33
2023/01/16 00:37:56;;;;;;;;;;;;;;;11.36;nan;99964.38;5010341;28;19933;-33
2023/01/16 00:40:22;;;;;;;;;;;;;;;11.37;nan;99961.41;5008039;28;20336;-33
2023/01/16 00:42:47;;;;;;;;;;;;;;;11.40;nan;99968.13;5007248;28;19918;-32
2023/01/16 00:45:13;;;;;;;;;;;;;;;11.36;nan;99961.69;5007696;28;20303;-33
2023/01/16 00:47:38;;;;;;;;;;;;;;;11.38;nan;99963.03;5007008;28;19924;-33
2023/01/16 00:50:04;;;;;;;;;;;;;;;11.39;nan;99958.47;5004820;28;20005;-33
2023/01/16 00:52:29;;;;;;;;;;;;;;;11.31;nan;99956.31;5005020;28;19925;-32
2023/01/16 00:54:54;;;;;;;;;;;;;;;11.32;nan;99958.75;5003730;28;20318;-32
2023/01/16 00:57:20;;;;;;;;;;;;;;;11.32;nan;99957.94;5000082;28;19925;-33
2023/01/16 00:59:45;;;;;;;;;;;;;;;11.34;nan;99961.16;5002951;28;19975;-32
2023/01/16 01:02:10;;;;;;;;;;;;;;;11.30;nan;99962.75;5001084;28;20020;-32
2023/01/16 01:04:36;;;;;;;;;;;;;;;11.28;nan;99952.31;5005657;28;20024;-32
2023/01/16 01:07:01;;;;;;;;;;;;;;;11.29;nan;99964.63;5003272;28;19929;-32
2023/01/16 01:09:26;;;;;;;;;;;;;;;11.18;nan;99961.19;5005422;28;19949;-32
2023/01/16 01:11:52;;;;;;;;;;;;;;;11.15;nan;99968.97;5007131;28;19967;-33
2023/01/16 01:14:17;;;;;;;;;;;;;;;11.11;nan;99968.69;5001830;28;19917;-32
2023/01/16 01:16:42;;;;;;;;;;;;;;;11.09;nan;99959.31;5003705;28;20031;-32
2023/01/16 01:19:07;;;;;;;;;;;;;;;11.09;nan;99960.13;5003014;28;19947;-32
2023/01/16 01:21:33;;;;;;;;;;;;;;;11.07;nan;99962.28;5004273;28;19924;-32
2023/01/16 01:23:58;;;;;;;;;;;;;;;11.11;nan;99963.31;5005585;28;19920;-33
2023/01/16 01:26:23;;;;;;;;;;;;;;;11.17;nan;99969.50;5004726;28;19921;-33
2023/01/16 01:28:49;;;;;;;;;;;;;;;11.16;nan;99966.03;5006557;28;19932;-33
2023/01/16 01:31:14;;;;;;;;;;;;;;;11.12;nan;99967.63;5000313;28;19929;-33
2023/01/16 01:33:40;;;;;;;;;;;;;;;11.13;nan;99971.94;5006678;28;20413;-32
2023/01/16 01:36:06;;;;;;;;;;;;;;;11.12;nan;99964.13;5005667;28;19935;-33
2023/01/16 01:38:31;;;;;;;;;;;;;;;11.10;nan;99967.09;5003649;28;20380;-32
2023/01/16 01:40:57;;;;;;;;;;;;;;;11.07;nan;99967.63;5002348;28;19926;-32
2023/01/16 01:43:38;;;;;;;;;;;;;;;11.10;nan;99980.50;5005049;28;20343;-32
2023/01/16 01:46:04;;;;;;;;;;;;;;;11.08;nan;99971.91;4998209;28;19932;-32
2023/01/16 01:48:33;;;;;;;;;;;;;;;11.08;nan;99958.50;5001521;28;19926;-32
2023/01/16 01:50:58;;;;;;;;;;;;;;;11.10;nan;99964.41;5001730;28;19922;-32
2023/01/16 01:53:39;;;;;;;;;;;;;;;11.08;nan;99958.50;5000101;28;20417;-32
2023/01/16 01:56:27;;;;;;;;;;;;;;;11.06;nan;99959.84;5001899;28;19925;-32
2023/01/16 01:58:55;;;;;;;;;;;;;;;11.05;nan;99959.06;5000974;28;19944;-32
2023/01/16 02:03:51;;;;;;;;;;;;;;;11.01;nan;99954.50;5013780;28;20167;-34
2023/01/16 02:06:19;;;;;;;;;;;;;;;11.02;nan;99954.25;5015756;28;19921;-35
2023/01/16 02:08:45;;;;;;;;;;;;;;;11.01;nan;99963.34;5016242;28;19978;-35
2023/01/16 02:11:32;;;;;;;;;;;;;;;11.03;nan;99971.13;5017890;28;19976;-36
2023/01/16 02:14:05;;;;;;;;;;;;;;;11.02;nan;99961.47;4996437;28;19921;-35
2023/01/16 02:19:22;;;;;;;;;;;;;;;11.02;nan;99967.63;4997662;28;19951;-34
2023/01/16 02:22:06;;;;;;;;;;;;;;;11.02;nan;99958.81;4995960;28;19932;-35
2023/01/16 02:24:37;;;;;;;;;;;;;;;11.01;nan;99973.28;4995218;28;19925;-34
2023/01/16 02:27:09;;;;;;;;;;;;;;;11.00;nan;99955.59;4995795;28;20882;-34
2023/01/16 02:29:42;;;;;;;;;;;;;;;11.00;nan;99955.59;4996683;28;19936;-34
2023/01/16 02:32:23;;;;;;;;;;;;;;;11.00;nan;99955.59;4996036;28;19925;-34
2023/01/16 02:34:59;;;;;;;;;;;;;;;11.04;nan;99940.56;4996045;28;19936;-34
2023/01/16 02:37:42;;;;;;;;;;;;;;;11.06;nan;99949.94;4996250;28;20028;-34
2023/01/16 02:40:08;;;;;;;;;;;;;;;11.00;nan;99956.38;4995229;28;19925;-34
2023/01/16 02:42:42;;;;;;;;;;;;;;;11.01;nan;99952.63;4993321;28;20287;-35
2023/01/16 02:45:17;;;;;;;;;;;;;;;11.06;nan;99957.97;4999049;28;19921;-34
2023/01/16 02:47:51;;;;;;;;;;;;;;;11.07;nan;99951.53;4996092;28;20268;-34
2023/01/16 02:50:37;;;;;;;;;;;;;;;11.14;nan;99946.72;4997912;28;20133;-35
2023/01/16 02:53:12;;;;;;;;;;;;;;;11.14;nan;99948.59;4997904;28;20036;-34
2023/01/16 02:55:46;;;;;;;;;;;;;;;11.19;nan;99948.59;4998900;28;20377;-34
2023/01/16 02:58:14;;;;;;;;;;;;;;;11.26;nan;99950.97;4995732;28;20028;-34
2023/01/16 03:00:48;;;;;;;;;;;;;;;11.27;nan;99944.53;4996099;28;20352;-34
2023/01/16 03:03:29;;;;;;;;;;;;;;;11.28;nan;99946.13;4996431;28;20554;-34
2023/01/16 03:06:00;;;;;;;;;;;;;;;11.26;nan;99942.94;4998929;28;19936;-34
2023/01/16 03:08:28;;;;;;;;;;;;;;;11.25;nan;99941.31;5000365;28;19970;-34
2023/01/16 03:11:12;;;;;;;;;;;;;;;11.20;nan;99945.63;5000434;28;19936;-34
2023/01/16 03:13:46;;;;;;;;;;;;;;;11.24;nan;99931.69;5001880;28;19943;-35
2023/01/16 03:16:21;;;;;;;;;;;;;;;11.24;nan;99937.03;4998293;28;20008;-36
2023/01/16 03:18:55;;;;;;;;;;;;;;;11.25;nan;99938.66;4999888;28;20302;-34
2023/01/16 03:21:30;;;;;;;;;;;;;;;11.25;nan;99938.66;4999189;28;19921;-34
2023/01/16 03:23:59;;;;;;;;;;;;;;;11.27;nan;99941.84;4998398;28;19925;-34
2023/01/16 03:26:24;;;;;;;;;;;;;;;11.26;nan;99937.56;4997875;28;19940;-34
2023/01/16 03:29:03;;;;;;;;;;;;;;;11.25;nan;99938.66;4998587;28;19963;-34
2023/01/16 03:31:33;;;;;;;;;;;;;;;11.18;nan;99937.06;5000027;28;19948;-34
2023/01/16 03:34:08;;;;;;;;;;;;;;;11.24;nan;99932.47;4999281;28;19926;-34
2023/01/16 03:36:55;;;;;;;;;;;;;;;11.25;nan;99944.00;4997352;28;20075;-35
2023/01/16 03:39:22;;;;;;;;;;;;;;;11.19;nan;99937.84;5001164;28;20059;-34
2023/01/16 03:41:50;;;;;;;;;;;;;;;11.12;nan;99927.41;4998202;28;19922;-35
2023/01/16 03:44:29;;;;;;;;;;;;;;;11.11;nan;99936.53;4995071;28;19967;-34
2023/01/16 03:46:55;;;;;;;;;;;;;;;11.13;nan;99928.19;4997598;28;20310;-34
2023/01/16 03:49:25;;;;;;;;;;;;;;;11.13;nan;99929.03;4998233;28;19936;-34
2023/01/16 03:51:53;;;;;;;;;;;;;;;11.09;nan;99927.16;4999092;28;19925;-34
2023/01/16 03:54:43;;;;;;;;;;;;;;;11.03;nan;99918.31;4997094;28;19932;-34
2023/01/16 03:57:17;;;;;;;;;;;;;;;11.01;nan;99909.75;4998100;28;19925;-35
2023/01/16 03:59:44;;;;;;;;;;;;;;;11.02;nan;99910.56;4998351;28;19946;-35
2023/01/16 04:02:21;;;;;;;;;;;;;;;10.99;nan;99906.53;5000561;28;19953;-33
2023/01/16 04:04:51;;;;;;;;;;;;;;;11.01;nan;99908.94;4997853;28;20354;-36
2023/01/16 04:07:20;;;;;;;;;;;;;;;10.98;nan;99910.28;4998251;28;20688;-34
2023/01/16 04:09:59;;;;;;;;;;;;;;;10.91;nan;99912.44;4999064;28;19925;-34
2023/01/16 04:12:29;;;;;;;;;;;;;;;10.87;nan;99903.34;4998189;28;20382;-34
2023/01/16 04:14:57;;;;;;;;;;;;;;;10.90;nan;99908.94;4996005;28;19922;-34
2023/01/16 04:17:23;;;;;;;;;;;;;;;10.86;nan;99905.22;4998741;28;20406;-34
2023/01/16 04:19:48;;;;;;;;;;;;;;;10.86;nan;99896.38;4997922;28;19928;-34
2023/01/16 04:22:21;;;;;;;;;;;;;;;10.88;nan;99900.38;4998001;28;19926;-35
2023/01/16 04:24:47;;;;;;;;;;;;;;;10.83;nan;99896.91;4998717;28;19917;-34
2023/01/16 04:27:12;;;;;;;;;;;;;;;10.86;nan;99888.31;4997166;28;19929;-35
2023/01/16 04:29:38;;;;;;;;;;;;;;;10.87;nan;99892.63;4998328;28;19944;-34
2023/01/16 04:32:03;;;;;;;;;;;;;;;10.82;nan;99885.41;4996607;28;19925;-34
2023/01/16 04:34:29;;;;;;;;;;;;;;;10.84;nan;99882.44;4994819;28;20115;-35
2023/01/16 04:36:54;;;;;;;;;;;;;;;10.84;nan;99880.56;4993705;28;20342;-33
2023/01/16 04:39:19;;;;;;;;;;;;;;;10.86;nan;99880.28;4991339;28;20298;-34
2023/01/16 04:41:50;;;;;;;;;;;;;;;10.86;nan;99869.56;4990596;28;19925;-35
2023/01/16 04:44:16;;;;;;;;;;;;;;;10.88;nan;99872.78;4991594;28;19992;-34
2023/01/16 04:46:41;;;;;;;;;;;;;;;10.89;nan;99869.81;4992031;28;19983;-34
2023/01/16 04:49:06;;;;;;;;;;;;;;;10.94;nan;99877.03;4997981;28;20781;-35
2023/01/16 04:51:32;;;;;;;;;;;;;;;10.96;nan;99866.06;4995354;28;19952;-35
2023/01/16 04:53:57;;;;;;;;;;;;;;;10.95;nan;99861.75;4998980;28;19948;-35
2023/01/16 04:56:23;;;;;;;;;;;;;;;10.98;nan;99864.72;4995269;28;19932;-34
2023/01/16 04:58:50;;;;;;;;;;;;;;;11.00;nan;99857.22;4996052;28;19932;-34
2023/01/16 05:01:16;;;;;;;;;;;;;;;11.06;nan;99858.78;4999043;28;19921;-34
2023/01/16 05:03:42;;;;;;;;;;;;;;;11.07;nan;99854.25;4998261;28;19925;-34
2023/01/16 05:06:07;;;;;;;;;;;;;;;11.09;nan;99849.41;4994769;28;20459;-34
2023/01/16 05:08:32;;;;;;;;;;;;;;;11.09;nan;99854.75;4996539;28;20746;-35
2023/01/16 05:11:00;;;;;;;;;;;;;;;11.12;nan;99855.00;4999086;28;20000;-34
2023/01/16 05:13:26;;;;;;;;;;;;;;;11.09;nan;99852.88;4998968;28;19925;-34
2023/01/16 05:15:51;;;;;;;;;;;;;;;11.08;nan;99850.47;4998037;28;21372;-34
2023/01/16 05:18:16;;;;;;;;;;;;;;;11.10;nan;99845.66;4997737;28;20044;-34
2023/01/16 05:20:42;;;;;;;;;;;;;;;11.11;nan;99847.25;4999400;28;19965;-34
2023/01/16 05:23:10;;;;;;;;;;;;;;;11.13;nan;99848.59;4999645;28;19964;-35
2023/01/16 05:25:35;;;;;;;;;;;;;;;11.07;nan;99849.69;4996439;28;20335;-34
2023/01/16 05:28:01;;;;;;;;;;;;;;;11.08;nan;99845.91;4996178;28;19932;-34
2023/01/16 05:30:26;;;;;;;;;;;;;;;11.10;nan;99832.25;4998659;28;19980;-34
2023/01/16 05:32:51;;;;;;;;;;;;;;;11.07;nan;99827.44;4997930;28;20408;-34
2023/01/16 05:35:17;;;;;;;;;;;;;;;11.05;nan;99833.06;4997699;28;19922;-35
2023/01/16 05:37:42;;;;;;;;;;;;;;;11.02;nan;99825.56;4997891;28;20714;-35
2023/01/16 05:40:08;;;;;;;;;;;;;;;10.99;nan;99826.13;4997675;28;19922;-34
2023/01/16 05:42:34;;;;;;;;;;;;;;;10.98;nan;99819.16;4993572;28;19953;-35
2023/01/16 05:44:59;;;;;;;;;;;;;;;10.99;nan;99815.41;4994332;28;20019;-35
2023/01/16 05:47:24;;;;;;;;;;;;;;;11.03;nan;99821.81;4994878;28;19937;-34
2023/01/16 05:49:50;;;;;;;;;;;;;;;11.02;nan;99814.84;4997298;28;20453;-34
2023/01/16 05:52:15;;;;;;;;;;;;;;;11.00;nan;99819.69;4995947;28;20469;-35
2023/01/16 05:54:41;;;;;;;;;;;;;;;11.02;nan;99812.19;4994480;28;19984;-34
2023/01/16 05:57:06;;;;;;;;;;;;;;;10.99;nan;99823.44;4992511;28;19949;-34
2023/01/16 05:59:32;;;;;;;;;;;;;;;10.96;nan;99823.19;4990782;28;19963;-34
2023/01/16 06:01:58;;;;;;;;;;;;;;;10.94;nan;99818.09;4989006;28;19925;-35
2023/01/16 06:04:23;;;;;;;;;;;;;;;10.94;nan;99819.97;4991439;28;19924;-34
2023/01/16 06:06:49;;;;;;;;;;;;;;;10.93;nan;99811.13;4987882;28;20530;-34
2023/01/16 06:09:14;;;;;;;;;;;;;;;10.94;nan;99814.59;4991583;28;19995;-35
2023/01/16 06:11:40;;;;;;;;;;;;;;;10.90;nan;99823.19;4995771;28;19964;-34
2023/01/16 06:14:05;;;;;;;;;;;;;;;10.95;nan;99813.53;4994875;28;19972;-33
2023/01/16 06:16:31;;;;;;;;;;;;;;;10.92;nan;99814.88;4993117;28;19921;-34
2023/01/16 06:18:57;;;;;;;;;;;;;;;10.85;nan;99814.38;4996036;28;19957;-34
2023/01/16 06:21:22;;;;;;;;;;;;;;;10.83;nan;99817.31;4996054;28;20318;-34
2023/01/16 06:23:48;;;;;;;;;;;;;;;10.82;nan;99809.56;4997234;28;19926;-34
2023/01/16 06:26:13;;;;;;;;;;;;;;;10.86;nan;99815.97;4995383;28;19925;-34
2023/01/16 06:28:38;;;;;;;;;;;;;;;10.81;nan;99807.97;4991775;28;20402;-35
2023/01/16 06:31:04;;;;;;;;;;;;;;;10.77;nan;99804.19;4994537;28;19931;-34
2023/01/16 06:33:30;;;;;;;;;;;;;;;10.79;nan;99810.09;4995013;28;20387;-34
2023/01/16 06:35:55;;;;;;;;;;;;;;;10.70;nan;99812.53;4992441;28;20046;-35
2023/01/16 06:38:21;;;;;;;;;;;;;;;10.70;nan;99811.72;4992552;28;19921;-34
2023/01/16 06:40:47;;;;;;;;;;;;;;;10.70;nan;99806.38;4989881;28;19922;-34
2023/01/16 06:43:12;;;;;;;;;;;;;;;10.59;nan;99806.41;4991016;28;19917;-35
2023/01/16 06:45:38;;;;;;;;;;;;;;;10.56;nan;99803.44;4990606;28;20134;-34
2023/01/16 06:48:03;;;;;;;;;;;;;;;10.57;nan;99797.81;4989218;28;19925;-34
2023/01/16 06:50:29;;;;;;;;;;;;;;;10.59;nan;99793.00;4991274;28;19921;-33
2023/01/16 06:52:54;;;;;;;;;;;;;;;10.63;nan;99789.78;4989578;28;20271;-34
2023/01/16 06:55:19;;;;;;;;;;;;;;;10.64;nan;99789.50;4992017;28;20327;-34
2023/01/16 06:57:45;;;;;;;;;;;;;;;10.66;nan;99791.91;4993382;28;19928;-34
2023/01/16 07:00:11;;;;;;;;;;;;;;;10.68;nan;99795.13;4992678;28;19936;-34
2023/01/16 07:02:39;;;;;;;;;;;;;;;10.65;nan;99799.16;4991413;28;20404;-34
2023/01/16 07:05:05;;;;;;;;;;;;;;;10.59;nan;99793.00;4989436;28;20643;-34
2023/01/16 07:07:31;;;;;;;;;;;;;;;10.51;nan;99782.03;4988957;28;20024;-35
2023/01/16 07:09:56;;;;;;;;;;;;;;;10.44;nan;99786.88;5000011;28;19932;-34
2023/01/16 07:12:21;;;;;;;;;;;;;;;10.41;nan;99790.91;4990685;28;19926;-34
2023/01/16 07:22:59;;;;;;;;;;;;;;;10.20;nan;99782.03;4997136;28;20072;-33
2023/01/16 07:25:32;;;;;;;;;;;;;;;10.21;nan;99786.34;4994942;28;19925;-34
2023/01/16 07:27:58;;;;;;;;;;;;;;;10.21;nan;99778.31;4995199;28;19927;-34
2023/01/16 07:30:24;;;;;;;;;;;;;;;10.22;nan;99779.09;4989922;28;19925;-34
2023/01/16 07:32:49;;;;;;;;;;;;;;;10.22;nan;99779.09;4988624;28;20396;-35
2023/01/16 07:35:15;;;;;;;;;;;;;;;10.18;nan;99776.16;4990592;28;19925;-35
2023/01/16 07:37:42;;;;;;;;;;;;;;;10.22;nan;99773.75;4989728;28;20410;-34
2023/01/16 07:40:08;;;;;;;;;;;;;;;10.18;nan;99775.34;4990767;28;19921;-35
2023/01/16 07:42:33;;;;;;;;;;;;;;;10.19;nan;99768.91;4992234;28;20397;-34
2023/01/16 07:44:58;;;;;;;;;;;;;;;10.19;nan;99768.91;4991751;28;20698;-35
2023/01/16 07:47:24;;;;;;;;;;;;;;;10.21;nan;99766.78;4992176;28;20073;-34
2023/01/16 07:49:49;;;;;;;;;;;;;;;10.25;nan;99766.00;4995628;28;19932;-35
2023/01/16 07:52:16;;;;;;;;;;;;;;;10.28;nan;99760.13;5000530;28;19929;-34
2023/01/16 07:54:42;;;;;;;;;;;;;;;10.29;nan;99752.88;4998682;28;20640;-34
2023/01/16 07:57:07;;;;;;;;;;;;;;;10.33;nan;99758.50;4998313;28;19964;-33
2023/01/16 07:59:33;;;;;;;;;;;;;;;10.26;nan;99742.72;4998155;28;20021;-35
2023/01/16 08:01:58;;;;;;;;;;;;;;;10.26;nan;99754.22;5016977;22;19945;-35
2023/01/16 08:04:23;;;;;;;;;;;;;;;10.26;nan;99737.38;5028291;28;20066;-34
2023/01/16 08:06:48;;;;;;;;;;;;;;;10.28;nan;99741.38;5030449;28;19929;-35
2023/01/16 08:09:14;;;;;;;;;;;;;;;10.26;nan;99742.72;5030256;28;19925;-34
2023/01/16 08:11:39;;;;;;;;;;;;;;;10.21;nan;99740.03;5029152;28;19921;-34
2023/01/16 08:14:06;;;;;;;;;;;;;;;10.22;nan;99741.63;5032844;28;19931;-34
2023/01/16 08:16:31;;;;;;;;;;;;;;;10.24;nan;99744.88;5033841;28;20054;-35
2023/01/16 08:18:56;;;;;;;;;;;;;;;10.27;nan;99745.13;5030790;28;20006;-34
2023/01/16 08:21:22;;;;;;;;;;;;;;;10.26;nan;99742.72;5029929;28;20086;-34
2023/01/16 08:23:47;;;;;;;;;;;;;;;10.27;nan;99733.63;5033157;28;19977;-34
2023/01/16 08:26:13;;;;;;;;;;;;;;;10.33;nan;99737.06;5032411;28;19979;-34
2023/01/16 08:28:38;;;;;;;;;;;;;;;10.36;nan;99726.63;5031311;28;19924;-34
2023/01/16 08:31:07;;;;;;;;;;;;;;;10.42;nan;99735.47;5030832;28;20326;-34
2023/01/16 08:33:32;;;;;;;;;;;;;;;10.43;nan;99739.75;5032632;28;19925;-34
2023/01/16 08:35:59;;;;;;;;;;;;;;;10.51;nan;99734.63;5032220;28;19925;-34
2023/01/16 08:38:24;;;;;;;;;;;;;;;10.59;nan;99730.56;5030719;28;20340;-34
2023/01/16 08:40:49;;;;;;;;;;;;;;;10.65;nan;99723.34;5031949;28;19959;-34
2023/01/16 08:51:27;;;;;;;;;;;;;;;10.72;nan;99708.56;5029594;28;19974;-34
2023/01/16 08:53:53;;;;;;;;;;;;;;;10.75;nan;99709.91;5026335;28;19925;-34
2023/01/16 08:56:19;;;;;;;;;;;;;;;10.78;nan;99704.00;5031746;28;20334;-34
2023/01/16 08:58:44;;;;;;;;;;;;;;;10.70;nan;99699.22;5029766;28;19925;-35
2023/01/16 09:01:10;;;;;;;;;;;;;;;10.76;nan;99698.09;5031909;28;19925;-34
2023/01/16 09:03:35;;;;;;;;;;;;;;;10.80;nan;99699.19;5029563;28;19963;-34
2023/01/16 09:06:01;;;;;;;;;;;;;;;10.85;nan;99696.47;5030989;28;20263;-34
2023/01/16 09:08:26;;;;;;;;;;;;;;;10.85;nan;99697.28;5030613;28;19920;-34
2023/01/16 09:13:51;;;;;;;;;;;;;;;10.80;nan;99693.81;5031320;28;19995;-34
2023/01/16 09:16:21;;;;;;;;;;;;;;;10.74;nan;99687.66;5030281;28;19928;-34
2023/01/16 09:18:47;;;;;;;;;;;;;;;10.74;nan;99686.84;5029832;28;20022;-35
2023/01/16 09:21:12;;;;;;;;;;;;;;;10.70;nan;99683.13;5031841;28;20374;-34
2023/01/16 09:23:37;;;;;;;;;;;;;;;10.66;nan;99684.75;5032819;28;19924;-34
2023/01/16 09:26:03;;;;;;;;;;;;;;;10.65;nan;99677.81;5032987;28;19933;-34
2023/01/16 09:28:28;;;;;;;;;;;;;;;10.64;nan;99671.66;5031296;28;19960;-34
2023/01/16 09:30:54;;;;;;;;;;;;;;;10.62;nan;99671.13;5030825;28;22055;-35
2023/01/16 09:33:19;;;;;;;;;;;;;;;10.65;nan;99667.09;5028698;28;19968;-34
2023/01/16 09:35:45;;;;;;;;;;;;;;;10.69;nan;99662.78;5032896;28;20031;-34
2023/01/16 09:38:10;;;;;;;;;;;;;;;10.71;nan;99648.03;5028757;28;19920;-34
2023/01/16 09:40:36;;;;;;;;;;;;;;;10.78;nan;99647.75;5028463;28;20020;-34
2023/01/16 09:45:46;;;;;;;;;;;;;;;11.00;nan;99624.03;5028187;28;19932;-34
2023/01/16 09:48:21;;;;;;;;;;;;;;;11.06;nan;99614.88;5029854;28;19925;-34
2023/01/16 09:50:51;;;;;;;;;;;;;;;11.15;nan;99607.84;5030531;28;20536;-34
2023/01/16 09:58:59;;;;;;;;;;;;;;;11.46;nan;99580.75;5029450;28;19938;-34
2023/01/16 10:01:33;;;;;;;;;;;;;;;11.56;nan;99582.56;5030594;28;19921;-34
2023/01/16 10:04:09;;;;;;;;;;;;;;;11.58;nan;99569.66;5028370;28;19928;-34
2023/01/16 10:06:39;;;;;;;;;;;;;;;11.71;nan;99569.00;5027316;28;20052;-34
2023/01/16 10:09:18;;;;;;;;;;;;;;;11.75;nan;99562.00;5030431;28;19925;-35
2023/01/16 10:12:04;;;;;;;;;;;;;;;11.83;nan;99560.59;5028550;28;19970;-34
2023/01/16 10:14:53;;;;;;;;;;;;;;;11.93;nan;99545.19;5028087;28;20267;-34
2023/01/16 10:17:24;;;;;;;;;;;;;;;12.07;nan;99543.41;5027175;28;19925;-35
2023/01/16 10:19:50;;;;;;;;;;;;;;;12.17;nan;99544.34;5030281;28;19931;-34
2023/01/16 10:22:18;;;;;;;;;;;;;;;12.21;nan;99538.16;5029246;28;19921;-34
2023/01/16 10:24:49;;;;;;;;;;;;;;;12.27;nan;99534.28;5025675;28;19924;-34
2023/01/16 10:27:14;;;;;;;;;;;;;;;12.30;nan;99531.03;5027228;28;19928;-35
2023/01/16 10:29:44;;;;;;;;;;;;;;;12.35;nan;99519.41;5025612;28;19920;-35
2023/01/16 10:32:18;;;;;;;;;;;;;;;12.38;nan;99514.25;5027276;28;19927;-34
2023/01/16 10:34:52;;;;;;;;;;;;;;;12.47;nan;99519.78;5024783;28;19924;-34
2023/01/16 10:37:18;;;;;;;;;;;;;;;12.60;nan;99518.28;5028376;28;19971;-34
2023/01/16 10:39:44;;;;;;;;;;;;;;;12.68;nan;99515.72;5027472;28;19921;-35
2023/01/16 10:50:37;;;;;;;;;;;;;;;12.86;nan;99497.97;5028057;28;19931;-34
2023/01/16 10:53:04;;;;;;;;;;;;;;;12.89;nan;99486.63;5027500;28;19974;-35
2023/01/16 10:55:30;;;;;;;;;;;;;;;12.96;nan;99487.06;5027502;28;19927;-35
2023/01/16 10:57:58;;;;;;;;;;;;;;;13.06;nan;99480.72;5023875;28;19924;-34
2023/01/16 11:00:29;;;;;;;;;;;;;;;13.05;nan;99475.63;5028579;28;19955;-34
2023/01/16 11:02:59;;;;;;;;;;;;;;;13.05;nan;99472.94;5027671;28;19928;-35
2023/01/16 11:05:31;;;;;;;;;;;;;;;13.07;nan;99466.16;5026687;28;19932;-34
2023/01/16 11:08:07;;;;;;;;;;;;;;;13.11;nan;99461.03;5025759;28;20211;-34
2023/01/16 11:10:32;;;;;;;;;;;;;;;13.16;nan;99458.22;5030565;28;19932;-35
2023/01/16 11:18:42;;;;;;;;;;;;;;;13.38;nan;99453.00;5022720;28;20003;-35
2023/01/16 11:21:14;;;;;;;;;;;;;;;13.38;nan;99444.94;5026298;28;19948;-34
2023/01/16 11:23:41;;;;;;;;;;;;;;;13.36;nan;99449.81;5029088;28;19944;-34
2023/01/16 11:26:07;;;;;;;;;;;;;;;13.40;nan;99441.94;5028685;28;20059;-35
2023/01/16 11:28:34;;;;;;;;;;;;;;;13.40;nan;99423.91;5032061;28;19925;-34
2023/01/16 11:31:05;;;;;;;;;;;;;;;13.41;nan;99422.81;5030565;28;19920;-35
2023/01/16 11:34:04;;;;;;;;;;;;;;;13.57;nan;99412.56;5028443;28;19920;-35
2023/01/16 11:36:32;;;;;;;;;;;;;;;13.60;nan;99404.66;4995735;28;20305;-35
2023/01/16 11:38:59;;;;;;;;;;;;;;;13.68;nan;99395.09;5030274;28;20306;-34
2023/01/16 11:41:31;;;;;;;;;;;;;;;13.77;nan;99381.72;5029402;28;19925;-35
2023/01/16 11:46:50;;;;;;;;;;;;;;;13.90;nan;99383.59;5027891;28;19935;-36
2023/01/16 11:49:18;;;;;;;;;;;;;;;14.00;nan;99375.28;5029956;28;19956;-34
2023/01/16 11:51:43;;;;;;;;;;;;;;;14.05;nan;99371.69;5030548;28;19921;-35
2023/01/16 11:54:13;;;;;;;;;;;;;;;14.11;nan;99371.25;5030204;28;19931;-35
2023/01/16 11:57:08;;;;;;;;;;;;;;;14.16;nan;99360.38;5032733;28;19932;-35
2023/01/16 11:59:49;;;;;;;;;;;;;;;14.25;nan;99351.56;5008191;28;20457;-35
2023/01/16 12:02:26;;;;;;;;;;;;;;;14.37;nan;99343.75;5029822;28;20656;-35
2023/01/16 12:08:06;;;;;;;;;;;;;;;14.52;nan;99332.59;5026881;28;20042;-35
2023/01/16 12:10:38;;;;;;;;;;;;;;;14.53;nan;99334.19;5024105;28;21370;-35
2023/01/16 12:16:06;;;;;;;;;;;;;;;14.68;nan;99314.13;5031286;28;19967;-35
2023/01/16 12:18:42;;;;;;;;;;;;;;;14.77;nan;99317.66;5028040;28;19928;-35
2023/01/16 12:21:19;;;;;;;;;;;;;;;14.84;nan;99301.03;5030290;28;20113;-35
2023/01/16 12:24:09;;;;;;;;;;;;;;;14.80;nan;99301.66;5030062;28;19921;-36
2023/01/16 12:26:55;;;;;;;;;;;;;;;14.85;nan;99291.84;5009125;28;21380;-36
2023/01/16 12:29:21;;;;;;;;;;;;;;;14.95;nan;99296.97;4999915;28;19932;-34
2023/01/16 12:31:48;;;;;;;;;;;;;;;15.00;nan;99284.13;5030684;28;19921;-35
2023/01/16 12:34:21;;;;;;;;;;;;;;;15.17;nan;99282.59;5028108;28;19927;-35
2023/01/16 12:37:05;;;;;;;;;;;;;;;15.34;nan;99275.31;5028856;28;20023;-35
2023/01/16 12:39:41;;;;;;;;;;;;;;;15.45;nan;99272.34;5029133;28;20069;-35
2023/01/16 12:45:19;;;;;;;;;;;;;;;15.77;nan;99263.78;5026795;28;19959;-36
2023/01/16 12:47:51;;;;;;;;;;;;;;;16.06;nan;99265.03;5009302;28;19932;-36
2023/01/16 12:50:49;;;;;;;;;;;;;;;16.19;nan;99262.16;5027500;28;19985;-35
2023/01/16 12:53:20;;;;;;;;;;;;;;;16.19;nan;99248.66;4982235;28;19932;-35
2023/01/16 12:55:52;;;;;;;;;;;;;;;16.19;nan;99245.16;5028955;28;19917;-36
2023/01/16 12:58:19;;;;;;;;;;;;;;;16.08;nan;99244.69;5024822;28;20488;-35
2023/01/16 13:01:10;;;;;;;;;;;;;;;15.85;nan;99237.91;5028579;28;19921;-36
2023/01/16 13:03:44;;;;;;;;;;;;;;;15.56;nan;99230.41;5003580;28;19997;-35
2023/01/16 13:06:15;;;;;;;;;;;;;;;15.42;nan;99228.66;5024884;28;20067;-35
2023/01/16 13:08:46;;;;;;;;;;;;;;;15.66;nan;99227.44;5026909;28;19920;-35
2023/01/16 13:14:10;;;;;;;;;;;;;;;16.89;nan;99220.28;5021234;28;19947;-36
2023/01/16 13:16:35;;;;;;;;;;;;;;;17.07;nan;99215.56;5026595;28;19932;-35
2023/01/16 13:19:08;;;;;;;;;;;;;;;17.23;nan;99218.44;5027819;28;19961;-36
2023/01/16 13:21:35;;;;;;;;;;;;;;;17.54;nan;99215.34;5025203;28;19920;-35
2023/01/16 13:24:08;;;;;;;;;;;;;;;17.69;nan;99214.78;5026221;28;20598;-35
2023/01/16 13:26:33;;;;;;;;;;;;;;;17.83;nan;99208.31;5026987;28;19940;-35
2023/01/16 13:29:11;;;;;;;;;;;;;;;17.80;nan;99204.34;5025415;28;19921;-36
2023/01/16 13:31:38;;;;;;;;;;;;;;;17.62;nan;99203.69;5027785;28;20224;-36
2023/01/16 13:34:20;;;;;;;;;;;;;;;17.48;nan;99195.03;5028832;28;19928;-35
2023/01/16 13:36:51;;;;;;;;;;;;;;;17.46;nan;99184.53;5025985;28;20035;-36
2023/01/16 13:39:17;;;;;;;;;;;;;;;17.69;nan;99181.50;5026588;28;19929;-36
2023/01/16 13:41:44;;;;;;;;;;;;;;;17.70;nan;99172.25;5024826;28;20374;-35
2023/01/16 13:47:10;;;;;;;;;;;;;;;17.23;nan;99148.06;5042487;28;19987;-35
2023/01/16 13:49:35;;;;;;;;;;;;;;;17.22;nan;99147.28;5041273;28;20377;-35
2023/01/16 13:52:01;;;;;;;;;;;;;;;17.34;nan;99140.34;5042541;28;20593;-35
2023/01/16 13:54:56;;;;;;;;;;;;;;;17.36;nan;99143.53;5041436;28;19917;-35
2023/01/16 13:57:23;;;;;;;;;;;;;;;17.30;nan;99151.06;5029242;28;20294;-35
2023/01/16 13:59:49;;;;;;;;;;;;;;;17.07;nan;99141.69;5043957;28;19924;-35
2023/01/16 14:05:09;;;;;;;;;;;;;;;16.45;nan;99129.63;5038944;28;19928;-34
2023/01/16 14:11:08;;;;;;;;;;;;;;;15.63;nan;99123.56;5043828;28;19927;-33
2023/01/16 14:13:37;;;;;;;;;;;;;;;15.34;nan;99110.72;4977042;28;20304;-34
2023/01/16 14:16:30;;;;;;;;;;;;;;;15.14;nan;99111.38;5020515;28;19995;-33
2023/01/16 14:19:02;;;;;;;;;;;;;;;14.85;nan;99103.88;5021053;28;19921;-33
2023/01/16 14:21:39;;;;;;;;;;;;;;;14.75;nan;99105.00;5022668;28;19932;-33
2023/01/16 14:24:14;;;;;;;;;;;;;;;14.56;nan;99103.69;5005259;28;19932;-33
2023/01/16 14:26:44;;;;;;;;;;;;;;;14.38;nan;99090.16;5021965;28;19965;-33
2023/01/16 14:29:12;;;;;;;;;;;;;;;14.27;nan;99096.94;5023067;28;19925;-33